sensor_id;sensor_type;location;lat;lon;timestamp;P1;durP1;ratioP1;P2;durP2;ratioP2
19396;SDS011;9834;48.076;11.878;2022-12-10T00:02:07;26.90;;;16.30;;
19396;SDS011;9834;48.076;11.878;2022-12-10T00:04:36;25.43;;;14.60;;
19396;SDS011;9834;48.076;11.878;2022-12-10T00:07:03;26.87;;;15.70;;
19396;SDS011;9834;48.076;11.878;2022-12-10T00:09:30;28.33;;;15.90;;
19396;SDS011;9834;48.076;11.878;2022-12-10T00:11:57;29.47;;;16.57;;
19396;SDS011;9834;48.076;11.878;2022-12-10T00:14:24;25.70;;;14.60;;
19396;SDS011;9834;48.076;11.878;2022-12-10T00:16:51;26.97;;;14.13;;
19396;SDS011;9834;48.076;11.878;2022-12-10T00:19:18;23.53;;;14.07;;
19396;SDS011;9834;48.076;11.878;2022-12-10T00:21:46;23.47;;;14.40;;
19396;SDS011;9834;48.076;11.878;2022-12-10T00:24:13;27.40;;;15.10;;
19396;SDS011;9834;48.076;11.878;2022-12-10T00:26:40;26.37;;;15.67;;
19396;SDS011;9834;48.076;11.878;2022-12-10T00:29:09;23.07;;;14.40;;
19396;SDS011;9834;48.076;11.878;2022-12-10T00:31:37;23.40;;;12.83;;
19396;SDS011;9834;48.076;11.878;2022-12-10T00:34:06;26.50;;;14.60;;
19396;SDS011;9834;48.076;11.878;2022-12-10T00:36:35;24.27;;;14.67;;
19396;SDS011;9834;48.076;11.878;2022-12-10T00:39:05;31.40;;;16.80;;
19396;SDS011;9834;48.076;11.878;2022-12-10T00:41:32;31.50;;;16.93;;
19396;SDS011;9834;48.076;11.878;2022-12-10T00:43:59;37.23;;;18.00;;
19396;SDS011;9834;48.076;11.878;2022-12-10T00:46:26;27.13;;;15.10;;
19396;SDS011;9834;48.076;11.878;2022-12-10T00:48:53;29.70;;;16.93;;
19396;SDS011;9834;48.076;11.878;2022-12-10T00:51:20;27.67;;;16.53;;
19396;SDS011;9834;48.076;11.878;2022-12-10T00:53:49;27.00;;;15.20;;
19396;SDS011;9834;48.076;11.878;2022-12-10T00:56:20;28.60;;;14.77;;
19396;SDS011;9834;48.076;11.878;2022-12-10T00:58:48;24.57;;;15.20;;
19396;SDS011;9834;48.076;11.878;2022-12-10T01:01:17;27.27;;;15.47;;
19396;SDS011;9834;48.076;11.878;2022-12-10T01:03:45;27.43;;;16.97;;
19396;SDS011;9834;48.076;11.878;2022-12-10T01:06:15;34.03;;;17.27;;
19396;SDS011;9834;48.076;11.878;2022-12-10T01:08:44;27.83;;;16.20;;
19396;SDS011;9834;48.076;11.878;2022-12-10T01:11:12;26.63;;;15.53;;
19396;SDS011;9834;48.076;11.878;2022-12-10T01:13:42;26.20;;;15.00;;
19396;SDS011;9834;48.076;11.878;2022-12-10T01:16:11;24.80;;;14.97;;
19396;SDS011;9834;48.076;11.878;2022-12-10T01:18:39;21.30;;;14.00;;
19396;SDS011;9834;48.076;11.878;2022-12-10T01:21:06;28.47;;;15.80;;
19396;SDS011;9834;48.076;11.878;2022-12-10T01:23:36;25.30;;;15.23;;
19396;SDS011;9834;48.076;11.878;2022-12-10T01:26:05;23.67;;;13.50;;
19396;SDS011;9834;48.076;11.878;2022-12-10T01:28:34;21.80;;;12.83;;
19396;SDS011;9834;48.076;11.878;2022-12-10T01:31:06;25.73;;;13.40;;
19396;SDS011;9834;48.076;11.878;2022-12-10T01:33:34;20.07;;;13.10;;
19396;SDS011;9834;48.076;11.878;2022-12-10T01:36:03;23.43;;;12.73;;
19396;SDS011;9834;48.076;11.878;2022-12-10T01:38:32;25.80;;;14.43;;
19396;SDS011;9834;48.076;11.878;2022-12-10T01:41:00;22.00;;;12.53;;
19396;SDS011;9834;48.076;11.878;2022-12-10T01:43:27;23.00;;;14.93;;
19396;SDS011;9834;48.076;11.878;2022-12-10T01:46:18;23.37;;;13.77;;
19396;SDS011;9834;48.076;11.878;2022-12-10T01:48:55;26.10;;;15.63;;
19396;SDS011;9834;48.076;11.878;2022-12-10T01:51:24;23.03;;;14.60;;
19396;SDS011;9834;48.076;11.878;2022-12-10T01:53:52;21.63;;;13.87;;
19396;SDS011;9834;48.076;11.878;2022-12-10T01:56:20;28.97;;;14.87;;
19396;SDS011;9834;48.076;11.878;2022-12-10T01:58:48;27.47;;;14.80;;
19396;SDS011;9834;48.076;11.878;2022-12-10T02:01:21;28.23;;;15.83;;
19396;SDS011;9834;48.076;11.878;2022-12-10T02:03:59;27.97;;;15.47;;
19396;SDS011;9834;48.076;11.878;2022-12-10T02:06:41;27.10;;;14.70;;
19396;SDS011;9834;48.076;11.878;2022-12-10T02:09:18;28.27;;;15.97;;
19396;SDS011;9834;48.076;11.878;2022-12-10T02:11:52;28.63;;;15.20;;
19396;SDS011;9834;48.076;11.878;2022-12-10T02:14:29;28.03;;;17.53;;
19396;SDS011;9834;48.076;11.878;2022-12-10T02:17:04;25.20;;;16.03;;
19396;SDS011;9834;48.076;11.878;2022-12-10T02:22:23;25.07;;;16.07;;
19396;SDS011;9834;48.076;11.878;2022-12-10T02:24:52;23.37;;;13.90;;
19396;SDS011;9834;48.076;11.878;2022-12-10T02:27:22;28.93;;;15.30;;
19396;SDS011;9834;48.076;11.878;2022-12-10T02:29:55;23.27;;;14.13;;
19396;SDS011;9834;48.076;11.878;2022-12-10T02:32:24;35.10;;;16.67;;
19396;SDS011;9834;48.076;11.878;2022-12-10T02:34:56;33.03;;;18.67;;
19396;SDS011;9834;48.076;11.878;2022-12-10T02:37:27;33.10;;;17.13;;
19396;SDS011;9834;48.076;11.878;2022-12-10T02:39:58;34.40;;;17.40;;
19396;SDS011;9834;48.076;11.878;2022-12-10T02:42:29;31.27;;;16.63;;
19396;SDS011;9834;48.076;11.878;2022-12-10T02:45:00;27.10;;;15.27;;
19396;SDS011;9834;48.076;11.878;2022-12-10T02:47:27;36.53;;;18.50;;
19396;SDS011;9834;48.076;11.878;2022-12-10T02:49:56;32.03;;;17.43;;
19396;SDS011;9834;48.076;11.878;2022-12-10T02:52:24;26.03;;;15.30;;
19396;SDS011;9834;48.076;11.878;2022-12-10T02:54:52;23.67;;;14.23;;
19396;SDS011;9834;48.076;11.878;2022-12-10T02:57:29;29.03;;;16.47;;
19396;SDS011;9834;48.076;11.878;2022-12-10T03:00:05;26.33;;;15.13;;
19396;SDS011;9834;48.076;11.878;2022-12-10T03:02:42;30.57;;;15.77;;
19396;SDS011;9834;48.076;11.878;2022-12-10T03:05:19;29.40;;;16.00;;
19396;SDS011;9834;48.076;11.878;2022-12-10T03:07:54;25.80;;;16.03;;
19396;SDS011;9834;48.076;11.878;2022-12-10T03:10:26;32.47;;;19.10;;
19396;SDS011;9834;48.076;11.878;2022-12-10T03:12:59;25.83;;;15.90;;
19396;SDS011;9834;48.076;11.878;2022-12-10T03:15:30;29.53;;;16.57;;
19396;SDS011;9834;48.076;11.878;2022-12-10T03:18:00;26.17;;;15.03;;
19396;SDS011;9834;48.076;11.878;2022-12-10T03:20:30;31.27;;;15.80;;
19396;SDS011;9834;48.076;11.878;2022-12-10T03:23:00;30.17;;;15.80;;
19396;SDS011;9834;48.076;11.878;2022-12-10T03:25:29;26.17;;;14.70;;
19396;SDS011;9834;48.076;11.878;2022-12-10T03:27:58;32.50;;;15.93;;
19396;SDS011;9834;48.076;11.878;2022-12-10T03:30:26;28.90;;;14.80;;
19396;SDS011;9834;48.076;11.878;2022-12-10T03:32:57;26.70;;;15.03;;
19396;SDS011;9834;48.076;11.878;2022-12-10T03:35:24;33.43;;;16.00;;
19396;SDS011;9834;48.076;11.878;2022-12-10T03:37:51;27.03;;;14.77;;
19396;SDS011;9834;48.076;11.878;2022-12-10T03:40:20;27.23;;;14.67;;
19396;SDS011;9834;48.076;11.878;2022-12-10T03:42:49;27.70;;;15.80;;
19396;SDS011;9834;48.076;11.878;2022-12-10T03:45:15;24.63;;;15.17;;
19396;SDS011;9834;48.076;11.878;2022-12-10T03:47:44;25.23;;;15.17;;
19396;SDS011;9834;48.076;11.878;2022-12-10T03:50:11;29.50;;;16.33;;
19396;SDS011;9834;48.076;11.878;2022-12-10T03:52:38;22.67;;;13.03;;
19396;SDS011;9834;48.076;11.878;2022-12-10T03:55:05;28.93;;;14.67;;
19396;SDS011;9834;48.076;11.878;2022-12-10T03:57:39;26.17;;;15.57;;
19396;SDS011;9834;48.076;11.878;2022-12-10T04:00:07;35.93;;;15.53;;
19396;SDS011;9834;48.076;11.878;2022-12-10T04:02:35;31.83;;;17.97;;
19396;SDS011;9834;48.076;11.878;2022-12-10T04:05:04;27.93;;;15.73;;
19396;SDS011;9834;48.076;11.878;2022-12-10T04:07:32;30.03;;;16.50;;
19396;SDS011;9834;48.076;11.878;2022-12-10T04:09:59;29.13;;;16.90;;
19396;SDS011;9834;48.076;11.878;2022-12-10T04:12:26;29.13;;;16.47;;
19396;SDS011;9834;48.076;11.878;2022-12-10T04:14:53;31.50;;;15.97;;
19396;SDS011;9834;48.076;11.878;2022-12-10T04:17:38;30.67;;;16.77;;
19396;SDS011;9834;48.076;11.878;2022-12-10T04:20:07;27.10;;;15.57;;
19396;SDS011;9834;48.076;11.878;2022-12-10T04:22:54;29.77;;;17.30;;
19396;SDS011;9834;48.076;11.878;2022-12-10T04:25:39;34.20;;;18.17;;
19396;SDS011;9834;48.076;11.878;2022-12-10T04:28:23;24.50;;;15.53;;
19396;SDS011;9834;48.076;11.878;2022-12-10T04:30:50;31.23;;;16.10;;
19396;SDS011;9834;48.076;11.878;2022-12-10T04:33:17;23.97;;;14.50;;
19396;SDS011;9834;48.076;11.878;2022-12-10T04:35:46;31.57;;;16.83;;
19396;SDS011;9834;48.076;11.878;2022-12-10T04:38:13;29.73;;;16.80;;
19396;SDS011;9834;48.076;11.878;2022-12-10T04:40:43;38.27;;;18.07;;
19396;SDS011;9834;48.076;11.878;2022-12-10T04:43:16;29.77;;;16.37;;
19396;SDS011;9834;48.076;11.878;2022-12-10T04:45:44;32.00;;;17.40;;
19396;SDS011;9834;48.076;11.878;2022-12-10T04:48:10;27.17;;;15.70;;
19396;SDS011;9834;48.076;11.878;2022-12-10T04:50:37;31.17;;;16.60;;
19396;SDS011;9834;48.076;11.878;2022-12-10T04:53:06;26.53;;;14.93;;
19396;SDS011;9834;48.076;11.878;2022-12-10T04:55:33;24.63;;;16.10;;
19396;SDS011;9834;48.076;11.878;2022-12-10T04:58:00;26.63;;;15.23;;
19396;SDS011;9834;48.076;11.878;2022-12-10T05:00:27;30.93;;;14.57;;
19396;SDS011;9834;48.076;11.878;2022-12-10T05:02:54;33.03;;;17.00;;
19396;SDS011;9834;48.076;11.878;2022-12-10T05:05:21;27.97;;;15.23;;
19396;SDS011;9834;48.076;11.878;2022-12-10T05:07:48;30.23;;;17.10;;
19396;SDS011;9834;48.076;11.878;2022-12-10T05:10:17;30.20;;;16.40;;
19396;SDS011;9834;48.076;11.878;2022-12-10T05:12:44;25.30;;;14.53;;
19396;SDS011;9834;48.076;11.878;2022-12-10T05:15:12;32.70;;;17.13;;
19396;SDS011;9834;48.076;11.878;2022-12-10T05:17:39;27.03;;;15.10;;
19396;SDS011;9834;48.076;11.878;2022-12-10T05:20:07;23.80;;;13.73;;
19396;SDS011;9834;48.076;11.878;2022-12-10T05:22:42;28.03;;;14.20;;
19396;SDS011;9834;48.076;11.878;2022-12-10T05:25:27;24.03;;;13.70;;
19396;SDS011;9834;48.076;11.878;2022-12-10T05:27:58;28.73;;;16.20;;
19396;SDS011;9834;48.076;11.878;2022-12-10T05:30:34;25.33;;;15.03;;
19396;SDS011;9834;48.076;11.878;2022-12-10T05:33:01;25.50;;;14.83;;
19396;SDS011;9834;48.076;11.878;2022-12-10T05:35:34;29.80;;;15.90;;
19396;SDS011;9834;48.076;11.878;2022-12-10T05:38:02;29.07;;;15.90;;
19396;SDS011;9834;48.076;11.878;2022-12-10T05:40:33;24.23;;;14.57;;
19396;SDS011;9834;48.076;11.878;2022-12-10T05:43:00;31.17;;;16.63;;
19396;SDS011;9834;48.076;11.878;2022-12-10T05:45:27;35.07;;;17.73;;
19396;SDS011;9834;48.076;11.878;2022-12-10T05:47:54;29.63;;;16.23;;
19396;SDS011;9834;48.076;11.878;2022-12-10T05:50:21;34.17;;;15.50;;
19396;SDS011;9834;48.076;11.878;2022-12-10T05:52:49;26.63;;;16.13;;
19396;SDS011;9834;48.076;11.878;2022-12-10T05:55:16;27.70;;;15.23;;
19396;SDS011;9834;48.076;11.878;2022-12-10T05:57:44;30.27;;;14.77;;
19396;SDS011;9834;48.076;11.878;2022-12-10T06:00:12;29.47;;;15.93;;
19396;SDS011;9834;48.076;11.878;2022-12-10T06:02:39;30.97;;;15.70;;
19396;SDS011;9834;48.076;11.878;2022-12-10T06:05:06;30.90;;;16.73;;
19396;SDS011;9834;48.076;11.878;2022-12-10T06:07:34;29.90;;;16.57;;
19396;SDS011;9834;48.076;11.878;2022-12-10T06:10:01;32.87;;;16.40;;
19396;SDS011;9834;48.076;11.878;2022-12-10T06:12:28;33.10;;;17.23;;
19396;SDS011;9834;48.076;11.878;2022-12-10T06:14:57;28.77;;;16.43;;
19396;SDS011;9834;48.076;11.878;2022-12-10T06:17:24;29.43;;;14.77;;
19396;SDS011;9834;48.076;11.878;2022-12-10T06:19:51;32.67;;;16.83;;
19396;SDS011;9834;48.076;11.878;2022-12-10T06:22:18;26.63;;;16.67;;
19396;SDS011;9834;48.076;11.878;2022-12-10T06:24:46;25.20;;;14.47;;
19396;SDS011;9834;48.076;11.878;2022-12-10T06:27:13;24.10;;;15.53;;
19396;SDS011;9834;48.076;11.878;2022-12-10T06:29:40;29.77;;;15.03;;
19396;SDS011;9834;48.076;11.878;2022-12-10T06:32:08;28.03;;;15.57;;
19396;SDS011;9834;48.076;11.878;2022-12-10T06:34:35;21.33;;;12.43;;
19396;SDS011;9834;48.076;11.878;2022-12-10T06:37:02;32.83;;;15.80;;
19396;SDS011;9834;48.076;11.878;2022-12-10T06:39:29;25.03;;;15.60;;
19396;SDS011;9834;48.076;11.878;2022-12-10T06:41:56;29.07;;;14.80;;
19396;SDS011;9834;48.076;11.878;2022-12-10T06:44:22;29.83;;;17.07;;
19396;SDS011;9834;48.076;11.878;2022-12-10T06:46:49;27.00;;;16.60;;
19396;SDS011;9834;48.076;11.878;2022-12-10T06:49:18;26.00;;;14.77;;
19396;SDS011;9834;48.076;11.878;2022-12-10T06:51:45;27.03;;;14.30;;
19396;SDS011;9834;48.076;11.878;2022-12-10T06:54:13;21.97;;;13.00;;
19396;SDS011;9834;48.076;11.878;2022-12-10T06:56:41;30.60;;;15.13;;
19396;SDS011;9834;48.076;11.878;2022-12-10T06:59:07;28.33;;;14.13;;
19396;SDS011;9834;48.076;11.878;2022-12-10T07:01:34;31.63;;;15.20;;
19396;SDS011;9834;48.076;11.878;2022-12-10T07:04:03;24.43;;;14.10;;
19396;SDS011;9834;48.076;11.878;2022-12-10T07:06:32;35.00;;;18.20;;
19396;SDS011;9834;48.076;11.878;2022-12-10T07:08:59;25.63;;;14.70;;
19396;SDS011;9834;48.076;11.878;2022-12-10T07:11:26;31.90;;;16.77;;
19396;SDS011;9834;48.076;11.878;2022-12-10T07:13:53;32.87;;;17.60;;
19396;SDS011;9834;48.076;11.878;2022-12-10T07:16:20;30.03;;;17.20;;
19396;SDS011;9834;48.076;11.878;2022-12-10T07:18:49;25.33;;;15.73;;
19396;SDS011;9834;48.076;11.878;2022-12-10T07:21:16;31.57;;;16.70;;
19396;SDS011;9834;48.076;11.878;2022-12-10T07:23:46;31.73;;;15.40;;
19396;SDS011;9834;48.076;11.878;2022-12-10T07:26:14;36.30;;;17.83;;
19396;SDS011;9834;48.076;11.878;2022-12-10T07:28:40;34.60;;;18.13;;
19396;SDS011;9834;48.076;11.878;2022-12-10T07:31:08;32.87;;;17.00;;
19396;SDS011;9834;48.076;11.878;2022-12-10T07:33:36;36.80;;;18.87;;
19396;SDS011;9834;48.076;11.878;2022-12-10T07:36:04;38.27;;;17.57;;
19396;SDS011;9834;48.076;11.878;2022-12-10T07:38:31;35.30;;;18.87;;
19396;SDS011;9834;48.076;11.878;2022-12-10T07:41:03;31.73;;;18.10;;
19396;SDS011;9834;48.076;11.878;2022-12-10T07:43:32;32.80;;;17.87;;
19396;SDS011;9834;48.076;11.878;2022-12-10T07:46:02;26.70;;;16.00;;
19396;SDS011;9834;48.076;11.878;2022-12-10T07:48:30;33.17;;;17.73;;
19396;SDS011;9834;48.076;11.878;2022-12-10T07:50:57;30.07;;;16.53;;
19396;SDS011;9834;48.076;11.878;2022-12-10T07:53:24;32.17;;;16.77;;
19396;SDS011;9834;48.076;11.878;2022-12-10T07:55:51;34.53;;;17.70;;
19396;SDS011;9834;48.076;11.878;2022-12-10T07:58:20;26.70;;;15.63;;
19396;SDS011;9834;48.076;11.878;2022-12-10T08:00:47;28.70;;;15.10;;
19396;SDS011;9834;48.076;11.878;2022-12-10T08:03:14;31.03;;;18.30;;
19396;SDS011;9834;48.076;11.878;2022-12-10T08:05:41;29.27;;;17.47;;
19396;SDS011;9834;48.076;11.878;2022-12-10T08:08:11;32.63;;;17.43;;
19396;SDS011;9834;48.076;11.878;2022-12-10T08:10:38;31.80;;;19.00;;
19396;SDS011;9834;48.076;11.878;2022-12-10T08:13:06;30.70;;;17.30;;
19396;SDS011;9834;48.076;11.878;2022-12-10T08:15:34;34.37;;;19.27;;
19396;SDS011;9834;48.076;11.878;2022-12-10T08:18:01;44.93;;;22.67;;
19396;SDS011;9834;48.076;11.878;2022-12-10T08:20:28;39.17;;;21.33;;
19396;SDS011;9834;48.076;11.878;2022-12-10T08:22:55;34.97;;;19.00;;
19396;SDS011;9834;48.076;11.878;2022-12-10T08:25:31;23.70;;;14.90;;
19396;SDS011;9834;48.076;11.878;2022-12-10T08:27:58;31.83;;;17.97;;
19396;SDS011;9834;48.076;11.878;2022-12-10T08:30:27;32.90;;;17.27;;
19396;SDS011;9834;48.076;11.878;2022-12-10T08:32:56;27.40;;;15.73;;
19396;SDS011;9834;48.076;11.878;2022-12-10T08:35:23;31.37;;;16.93;;
19396;SDS011;9834;48.076;11.878;2022-12-10T08:37:51;27.23;;;15.57;;
19396;SDS011;9834;48.076;11.878;2022-12-10T08:40:18;29.17;;;16.53;;
19396;SDS011;9834;48.076;11.878;2022-12-10T08:42:45;29.13;;;15.87;;
19396;SDS011;9834;48.076;11.878;2022-12-10T08:45:12;34.53;;;16.87;;
19396;SDS011;9834;48.076;11.878;2022-12-10T08:47:39;32.93;;;16.23;;
19396;SDS011;9834;48.076;11.878;2022-12-10T08:50:07;26.73;;;15.80;;
19396;SDS011;9834;48.076;11.878;2022-12-10T08:52:35;31.27;;;16.50;;
19396;SDS011;9834;48.076;11.878;2022-12-10T08:55:02;22.93;;;15.37;;
19396;SDS011;9834;48.076;11.878;2022-12-10T08:57:29;29.80;;;15.67;;
19396;SDS011;9834;48.076;11.878;2022-12-10T08:59:56;24.40;;;15.00;;
19396;SDS011;9834;48.076;11.878;2022-12-10T09:02:23;33.17;;;16.57;;
19396;SDS011;9834;48.076;11.878;2022-12-10T09:04:50;28.27;;;16.33;;
19396;SDS011;9834;48.076;11.878;2022-12-10T09:07:19;27.73;;;16.23;;
19396;SDS011;9834;48.076;11.878;2022-12-10T09:09:46;26.83;;;15.47;;
19396;SDS011;9834;48.076;11.878;2022-12-10T09:12:13;35.43;;;17.70;;
19396;SDS011;9834;48.076;11.878;2022-12-10T09:14:40;29.93;;;19.27;;
19396;SDS011;9834;48.076;11.878;2022-12-10T09:17:08;33.70;;;20.37;;
19396;SDS011;9834;48.076;11.878;2022-12-10T09:19:35;35.20;;;18.87;;
19396;SDS011;9834;48.076;11.878;2022-12-10T09:22:02;28.53;;;17.87;;
19396;SDS011;9834;48.076;11.878;2022-12-10T09:24:30;28.10;;;16.43;;
19396;SDS011;9834;48.076;11.878;2022-12-10T09:26:57;24.30;;;15.27;;
19396;SDS011;9834;48.076;11.878;2022-12-10T09:29:25;24.27;;;15.90;;
19396;SDS011;9834;48.076;11.878;2022-12-10T09:31:52;28.90;;;15.10;;
19396;SDS011;9834;48.076;11.878;2022-12-10T09:34:19;21.30;;;14.47;;
19396;SDS011;9834;48.076;11.878;2022-12-10T09:36:47;24.03;;;14.97;;
19396;SDS011;9834;48.076;11.878;2022-12-10T09:39:14;26.23;;;15.50;;
19396;SDS011;9834;48.076;11.878;2022-12-10T09:41:59;30.57;;;15.67;;
19396;SDS011;9834;48.076;11.878;2022-12-10T09:44:42;27.13;;;15.27;;
19396;SDS011;9834;48.076;11.878;2022-12-10T09:47:18;25.50;;;14.03;;
19396;SDS011;9834;48.076;11.878;2022-12-10T09:49:54;32.00;;;15.83;;
19396;SDS011;9834;48.076;11.878;2022-12-10T09:52:31;28.83;;;14.93;;
19396;SDS011;9834;48.076;11.878;2022-12-10T09:55:04;27.60;;;14.30;;
19396;SDS011;9834;48.076;11.878;2022-12-10T10:39:30;32.20;;;16.47;;
19396;SDS011;9834;48.076;11.878;2022-12-10T10:42:00;30.87;;;17.20;;
19396;SDS011;9834;48.076;11.878;2022-12-10T10:44:36;26.83;;;16.40;;
19396;SDS011;9834;48.076;11.878;2022-12-10T10:47:23;31.83;;;18.70;;
19396;SDS011;9834;48.076;11.878;2022-12-10T10:49:55;36.50;;;19.17;;
19396;SDS011;9834;48.076;11.878;2022-12-10T10:52:25;39.57;;;20.73;;
19396;SDS011;9834;48.076;11.878;2022-12-10T10:54:56;33.83;;;18.70;;
19396;SDS011;9834;48.076;11.878;2022-12-10T10:57:25;40.63;;;20.20;;
19396;SDS011;9834;48.076;11.878;2022-12-10T11:00:00;36.00;;;19.73;;
19396;SDS011;9834;48.076;11.878;2022-12-10T11:02:33;36.03;;;18.93;;
19396;SDS011;9834;48.076;11.878;2022-12-10T11:05:04;36.93;;;19.77;;
19396;SDS011;9834;48.076;11.878;2022-12-10T11:07:35;34.60;;;19.97;;
19396;SDS011;9834;48.076;11.878;2022-12-10T11:10:14;33.70;;;20.03;;
19396;SDS011;9834;48.076;11.878;2022-12-10T11:12:44;34.97;;;19.47;;
19396;SDS011;9834;48.076;11.878;2022-12-10T11:15:29;31.97;;;18.93;;
19396;SDS011;9834;48.076;11.878;2022-12-10T11:17:59;35.17;;;18.87;;
19396;SDS011;9834;48.076;11.878;2022-12-10T11:20:27;33.97;;;18.73;;
19396;SDS011;9834;48.076;11.878;2022-12-10T11:22:55;34.43;;;19.43;;
19396;SDS011;9834;48.076;11.878;2022-12-10T11:25:29;33.77;;;20.17;;
19396;SDS011;9834;48.076;11.878;2022-12-10T11:28:14;35.77;;;18.37;;
19396;SDS011;9834;48.076;11.878;2022-12-10T11:30:57;30.33;;;17.23;;
19396;SDS011;9834;48.076;11.878;2022-12-10T11:33:39;33.43;;;18.40;;
19396;SDS011;9834;48.076;11.878;2022-12-10T11:36:18;28.60;;;16.80;;
19396;SDS011;9834;48.076;11.878;2022-12-10T11:38:57;33.23;;;17.87;;
19396;SDS011;9834;48.076;11.878;2022-12-10T11:41:34;31.60;;;17.80;;
19396;SDS011;9834;48.076;11.878;2022-12-10T11:44:12;30.23;;;18.13;;
19396;SDS011;9834;48.076;11.878;2022-12-10T11:49:52;24.63;;;15.33;;
19396;SDS011;9834;48.076;11.878;2022-12-10T11:52:29;31.57;;;17.70;;
19396;SDS011;9834;48.076;11.878;2022-12-10T11:55:07;27.97;;;15.73;;
19396;SDS011;9834;48.076;11.878;2022-12-10T11:57:51;31.87;;;15.67;;
19396;SDS011;9834;48.076;11.878;2022-12-10T12:00:33;26.00;;;15.67;;
19396;SDS011;9834;48.076;11.878;2022-12-10T12:03:13;29.57;;;14.50;;
19396;SDS011;9834;48.076;11.878;2022-12-10T12:06:09;24.00;;;15.17;;
19396;SDS011;9834;48.076;11.878;2022-12-10T12:08:55;29.50;;;17.60;;
19396;SDS011;9834;48.076;11.878;2022-12-10T12:11:34;24.27;;;16.13;;
19396;SDS011;9834;48.076;11.878;2022-12-10T12:14:16;27.07;;;16.07;;
19396;SDS011;9834;48.076;11.878;2022-12-10T12:16:49;30.50;;;16.40;;
19396;SDS011;9834;48.076;11.878;2022-12-10T12:19:25;28.50;;;14.83;;
19396;SDS011;9834;48.076;11.878;2022-12-10T12:21:58;32.07;;;16.40;;
19396;SDS011;9834;48.076;11.878;2022-12-10T12:24:32;26.13;;;15.77;;
19396;SDS011;9834;48.076;11.878;2022-12-10T12:27:05;29.73;;;16.13;;
19396;SDS011;9834;48.076;11.878;2022-12-10T12:29:41;25.87;;;15.00;;
19396;SDS011;9834;48.076;11.878;2022-12-10T12:32:17;28.60;;;14.17;;
19396;SDS011;9834;48.076;11.878;2022-12-10T12:34:49;20.27;;;13.20;;
19396;SDS011;9834;48.076;11.878;2022-12-10T12:37:20;30.07;;;15.60;;
19396;SDS011;9834;48.076;11.878;2022-12-10T12:39:53;21.33;;;13.27;;
19396;SDS011;9834;48.076;11.878;2022-12-10T12:42:28;22.23;;;13.90;;
19396;SDS011;9834;48.076;11.878;2022-12-10T12:45:03;23.80;;;14.43;;
19396;SDS011;9834;48.076;11.878;2022-12-10T12:47:39;21.83;;;12.87;;
19396;SDS011;9834;48.076;11.878;2022-12-10T12:50:13;23.47;;;13.63;;
19396;SDS011;9834;48.076;11.878;2022-12-10T12:52:53;21.67;;;13.67;;
19396;SDS011;9834;48.076;11.878;2022-12-10T12:55:27;22.00;;;13.83;;
19396;SDS011;9834;48.076;11.878;2022-12-10T12:58:03;20.23;;;14.23;;
19396;SDS011;9834;48.076;11.878;2022-12-10T13:00:43;26.43;;;13.43;;
19396;SDS011;9834;48.076;11.878;2022-12-10T13:03:27;21.57;;;13.73;;
19396;SDS011;9834;48.076;11.878;2022-12-10T13:06:11;25.83;;;14.30;;
19396;SDS011;9834;48.076;11.878;2022-12-10T13:08:48;19.77;;;13.07;;
19396;SDS011;9834;48.076;11.878;2022-12-10T13:11:19;24.63;;;14.40;;
19396;SDS011;9834;48.076;11.878;2022-12-10T13:14:04;24.83;;;15.00;;
19396;SDS011;9834;48.076;11.878;2022-12-10T13:16:58;20.90;;;13.47;;
19396;SDS011;9834;48.076;11.878;2022-12-10T13:19:43;26.97;;;13.93;;
19396;SDS011;9834;48.076;11.878;2022-12-10T13:22:11;25.00;;;13.70;;
19396;SDS011;9834;48.076;11.878;2022-12-10T13:25:02;22.23;;;15.20;;
19396;SDS011;9834;48.076;11.878;2022-12-10T13:27:37;29.17;;;16.00;;
19396;SDS011;9834;48.076;11.878;2022-12-10T13:30:27;27.83;;;15.70;;
19396;SDS011;9834;48.076;11.878;2022-12-10T13:33:05;33.50;;;17.43;;
19396;SDS011;9834;48.076;11.878;2022-12-10T13:35:48;26.73;;;16.43;;
19396;SDS011;9834;48.076;11.878;2022-12-10T13:38:23;32.07;;;15.23;;
19396;SDS011;9834;48.076;11.878;2022-12-10T13:40:59;26.77;;;15.87;;
19396;SDS011;9834;48.076;11.878;2022-12-10T13:43:56;28.23;;;16.07;;
19396;SDS011;9834;48.076;11.878;2022-12-10T13:46:52;32.87;;;16.87;;
19396;SDS011;9834;48.076;11.878;2022-12-10T13:49:24;27.87;;;14.87;;
19396;SDS011;9834;48.076;11.878;2022-12-10T13:51:57;29.13;;;16.10;;
19396;SDS011;9834;48.076;11.878;2022-12-10T14:00:17;31.70;;;16.33;;
19396;SDS011;9834;48.076;11.878;2022-12-10T14:02:57;33.10;;;17.63;;
19396;SDS011;9834;48.076;11.878;2022-12-10T14:05:42;30.03;;;18.10;;
19396;SDS011;9834;48.076;11.878;2022-12-10T14:08:25;34.30;;;19.17;;
19396;SDS011;9834;48.076;11.878;2022-12-10T14:10:55;29.73;;;18.10;;
19396;SDS011;9834;48.076;11.878;2022-12-10T14:13:25;33.03;;;18.00;;
19396;SDS011;9834;48.076;11.878;2022-12-10T14:15:58;33.50;;;18.87;;
19396;SDS011;9834;48.076;11.878;2022-12-10T14:18:28;35.53;;;20.30;;
19396;SDS011;9834;48.076;11.878;2022-12-10T14:20:57;45.30;;;20.97;;
19396;SDS011;9834;48.076;11.878;2022-12-10T14:23:31;32.97;;;19.03;;
19396;SDS011;9834;48.076;11.878;2022-12-10T14:26:05;33.37;;;19.90;;
19396;SDS011;9834;48.076;11.878;2022-12-10T14:28:37;28.83;;;18.00;;
19396;SDS011;9834;48.076;11.878;2022-12-10T14:31:14;37.87;;;20.93;;
19396;SDS011;9834;48.076;11.878;2022-12-10T14:33:45;46.97;;;23.27;;
19396;SDS011;9834;48.076;11.878;2022-12-10T14:36:20;44.87;;;22.43;;
19396;SDS011;9834;48.076;11.878;2022-12-10T14:38:52;33.97;;;21.40;;
19396;SDS011;9834;48.076;11.878;2022-12-10T14:41:23;43.10;;;21.73;;
19396;SDS011;9834;48.076;11.878;2022-12-10T14:43:52;40.23;;;21.53;;
19396;SDS011;9834;48.076;11.878;2022-12-10T14:46:22;40.13;;;20.93;;
19396;SDS011;9834;48.076;11.878;2022-12-10T14:48:52;38.03;;;21.80;;
19396;SDS011;9834;48.076;11.878;2022-12-10T14:51:26;39.97;;;21.23;;
19396;SDS011;9834;48.076;11.878;2022-12-10T14:54:02;40.07;;;19.80;;
19396;SDS011;9834;48.076;11.878;2022-12-10T14:56:30;36.00;;;19.73;;
19396;SDS011;9834;48.076;11.878;2022-12-10T14:59:04;40.07;;;22.43;;
19396;SDS011;9834;48.076;11.878;2022-12-10T15:01:46;31.43;;;19.63;;
19396;SDS011;9834;48.076;11.878;2022-12-10T15:04:18;37.93;;;19.87;;
19396;SDS011;9834;48.076;11.878;2022-12-10T15:06:47;34.07;;;19.60;;
19396;SDS011;9834;48.076;11.878;2022-12-10T15:09:19;38.20;;;21.53;;
19396;SDS011;9834;48.076;11.878;2022-12-10T15:12:01;37.70;;;23.73;;
19396;SDS011;9834;48.076;11.878;2022-12-10T15:14:28;34.53;;;19.93;;
19396;SDS011;9834;48.076;11.878;2022-12-10T15:20:19;35.40;;;19.37;;
19396;SDS011;9834;48.076;11.878;2022-12-10T15:22:49;45.57;;;21.57;;
19396;SDS011;9834;48.076;11.878;2022-12-10T15:25:28;39.00;;;20.27;;
19396;SDS011;9834;48.076;11.878;2022-12-10T15:28:20;36.03;;;19.93;;
19396;SDS011;9834;48.076;11.878;2022-12-10T15:30:49;29.57;;;18.43;;
19396;SDS011;9834;48.076;11.878;2022-12-10T15:33:22;35.37;;;19.13;;
19396;SDS011;9834;48.076;11.878;2022-12-10T15:35:57;32.87;;;18.47;;
19396;SDS011;9834;48.076;11.878;2022-12-10T15:38:26;36.30;;;20.17;;
19396;SDS011;9834;48.076;11.878;2022-12-10T15:40:58;35.17;;;19.90;;
19396;SDS011;9834;48.076;11.878;2022-12-10T15:43:27;37.17;;;20.60;;